createdAt,value
2022-12-25T00:00:32.130Z,1015.7104572719999
2022-12-25T00:01:32.116Z,1015.91364
2022-12-25T00:02:32.230Z,1015.91364
2022-12-25T00:03:32.254Z,1015.91364
2022-12-25T00:04:32.138Z,1015.812048636
2022-12-25T00:05:32.133Z,1016.0152313639999
2022-12-25T00:06:32.134Z,1016.0152313639999
2022-12-25T00:07:32.127Z,1016.116822728
2022-12-25T00:08:32.130Z,1016.0152313639999
2022-12-25T00:09:32.116Z,1015.91364
2022-12-25T00:10:32.209Z,1016.116822728
2022-12-25T00:11:32.129Z,1016.0152313639999
2022-12-25T00:12:32.100Z,1016.0152313639999
2022-12-25T00:13:32.124Z,1016.0152313639999
2022-12-25T00:14:32.144Z,1015.91364
2022-12-25T00:15:32.111Z,1016.218414092
2022-12-25T00:16:32.210Z,1015.91364
2022-12-25T00:17:32.088Z,1016.3200054560001
2022-12-25T00:18:32.105Z,1016.116822728
2022-12-25T00:19:32.135Z,1016.116822728
2022-12-25T00:20:32.106Z,1016.0152313639999
2022-12-25T00:21:32.110Z,1015.812048636
2022-12-25T00:22:32.114Z,1016.0152313639999
2022-12-25T00:23:32.117Z,1016.116822728
2022-12-25T00:24:32.134Z,1016.218414092
2022-12-25T00:25:32.105Z,1016.0152313639999
2022-12-25T00:26:32.130Z,1016.116822728
2022-12-25T00:27:32.117Z,1016.116822728
2022-12-25T00:28:32.103Z,1016.218414092
2022-12-25T00:29:32.109Z,1016.218414092
2022-12-25T00:30:32.123Z,1015.91364
2022-12-25T00:31:32.194Z,1016.218414092
2022-12-25T00:32:32.141Z,1016.3200054560001
2022-12-25T00:33:32.129Z,1016.0152313639999
2022-12-25T00:34:32.248Z,1016.3200054560001
2022-12-25T00:35:32.098Z,1016.116822728
2022-12-25T00:36:37.780Z,1016.116822728
2022-12-25T00:37:32.108Z,1016.0152313639999
2022-12-25T00:38:32.247Z,1016.3200054560001
2022-12-25T00:39:32.103Z,1016.218414092
2022-12-25T00:40:32.093Z,1016.218414092
2022-12-25T00:41:32.202Z,1016.116822728
2022-12-25T00:42:32.124Z,1016.116822728
2022-12-25T00:43:32.107Z,1016.116822728
2022-12-25T00:44:32.182Z,1016.116822728
2022-12-25T00:45:32.310Z,1016.218414092
2022-12-25T00:46:32.250Z,1016.0152313639999
2022-12-25T00:47:32.117Z,1016.218414092
2022-12-25T00:48:32.142Z,1016.116822728
2022-12-25T00:49:32.095Z,1016.218414092
2022-12-25T00:50:32.138Z,1016.0152313639999
2022-12-25T00:51:32.107Z,1016.0152313639999
2022-12-25T00:52:32.121Z,1015.91364
2022-12-25T00:53:32.093Z,1016.0152313639999
2022-12-25T00:54:32.110Z,1016.116822728
2022-12-25T00:55:32.991Z,1016.218414092
2022-12-25T00:56:37.519Z,1016.218414092
2022-12-25T00:57:41.602Z,1016.0152313639999
2022-12-25T00:58:45.551Z,1016.116822728
2022-12-25T00:59:49.521Z,1016.0152313639999
2022-12-25T01:00:53.575Z,1016.0152313639999
2022-12-25T01:01:57.596Z,1016.116822728
2022-12-25T01:03:01.785Z,1016.0152313639999
2022-12-25T01:04:05.531Z,1016.116822728
2022-12-25T01:05:09.540Z,1016.218414092
2022-12-25T01:06:13.522Z,1015.91364
2022-12-25T01:07:17.602Z,1016.116822728
2022-12-25T01:08:21.510Z,1016.116822728
2022-12-25T01:09:25.546Z,1016.116822728
2022-12-25T01:10:29.519Z,1016.218414092
2022-12-25T01:11:32.146Z,1016.218414092
2022-12-25T01:12:32.148Z,1016.116822728
2022-12-25T01:13:32.129Z,1016.3200054560001
2022-12-25T01:14:32.106Z,1016.116822728
2022-12-25T01:15:32.251Z,1016.3200054560001
2022-12-25T01:16:32.177Z,1016.218414092
2022-12-25T01:17:32.116Z,1016.3200054560001
2022-12-25T01:18:32.137Z,1016.3200054560001
2022-12-25T01:19:32.122Z,1016.42159682
2022-12-25T01:20:32.126Z,1016.3200054560001
2022-12-25T01:21:32.095Z,1016.218414092
2022-12-25T01:22:32.101Z,1016.218414092
2022-12-25T01:23:32.108Z,1016.42159682
2022-12-25T01:24:32.141Z,1016.3200054560001
2022-12-25T01:25:32.107Z,1016.116822728
2022-12-25T01:26:32.099Z,1016.116822728
2022-12-25T01:27:32.089Z,1016.42159682
2022-12-25T01:28:32.120Z,1016.218414092
2022-12-25T01:29:32.090Z,1016.3200054560001
2022-12-25T01:30:32.120Z,1016.42159682
2022-12-25T01:31:32.110Z,1016.3200054560001
2022-12-25T01:32:32.114Z,1016.3200054560001
2022-12-25T01:33:32.108Z,1016.42159682
2022-12-25T01:34:32.119Z,1016.218414092
2022-12-25T01:35:32.104Z,1016.218414092
2022-12-25T01:36:32.181Z,1016.218414092
2022-12-25T01:37:32.098Z,1016.218414092
2022-12-25T01:38:32.095Z,1016.3200054560001
2022-12-25T01:39:32.085Z,1016.3200054560001
2022-12-25T01:40:32.250Z,1016.218414092
2022-12-25T01:41:32.270Z,1016.42159682
2022-12-25T01:42:32.245Z,1016.3200054560001
2022-12-25T01:43:32.263Z,1016.218414092
2022-12-25T01:44:32.279Z,1016.6247795480001
2022-12-25T01:45:32.353Z,1016.42159682
2022-12-25T01:46:32.312Z,1016.42159682
2022-12-25T01:47:32.232Z,1016.42159682
2022-12-25T01:48:32.287Z,1016.523188184
2022-12-25T01:49:32.227Z,1016.42159682
2022-12-25T01:50:32.180Z,1016.42159682
2022-12-25T01:51:32.231Z,1016.6247795480001
2022-12-25T01:52:32.120Z,1016.6247795480001
2022-12-25T01:53:32.115Z,1016.42159682
2022-12-25T01:54:32.130Z,1016.218414092
2022-12-25T01:55:32.100Z,1016.523188184
2022-12-25T01:56:32.112Z,1016.42159682
2022-12-25T01:57:32.102Z,1016.6247795480001
2022-12-25T01:58:32.124Z,1016.6247795480001
2022-12-25T01:59:32.098Z,1016.42159682
2022-12-25T02:00:32.125Z,1016.726370912
2022-12-25T02:01:32.269Z,1016.726370912
2022-12-25T02:02:32.264Z,1016.523188184
2022-12-25T02:03:32.244Z,1016.6247795480001
2022-12-25T02:04:32.135Z,1016.523188184
2022-12-25T02:05:32.115Z,1016.523188184
2022-12-25T02:06:32.098Z,1016.42159682
2022-12-25T02:07:32.105Z,1016.42159682
2022-12-25T02:08:32.109Z,1016.726370912
2022-12-25T02:09:32.071Z,1016.523188184
2022-12-25T02:10:32.085Z,1016.827962276
2022-12-25T02:11:32.109Z,1016.42159682
2022-12-25T02:12:32.095Z,1016.523188184
2022-12-25T02:13:32.063Z,1016.523188184
2022-12-25T02:14:32.093Z,1016.523188184
2022-12-25T02:15:32.102Z,1016.6247795480001
2022-12-25T02:16:32.177Z,1016.523188184
2022-12-25T02:17:32.091Z,1016.6247795480001
2022-12-25T02:18:32.053Z,1016.726370912
2022-12-25T02:19:32.095Z,1016.42159682
2022-12-25T02:20:32.116Z,1016.6247795480001
2022-12-25T02:21:32.140Z,1016.6247795480001
2022-12-25T02:22:32.111Z,1016.6247795480001
2022-12-25T02:23:32.095Z,1016.523188184
2022-12-25T02:24:32.099Z,1016.523188184
2022-12-25T02:25:32.120Z,1016.523188184
2022-12-25T02:26:32.075Z,1016.523188184
2022-12-25T02:27:32.103Z,1016.523188184
2022-12-25T02:28:32.065Z,1016.218414092
2022-12-25T02:29:32.100Z,1016.3200054560001
2022-12-25T02:30:32.127Z,1016.523188184
2022-12-25T02:31:32.094Z,1016.523188184
2022-12-25T02:32:32.089Z,1016.42159682
2022-12-25T02:33:32.151Z,1016.42159682
2022-12-25T02:34:32.106Z,1016.3200054560001
2022-12-25T02:35:32.123Z,1016.42159682
2022-12-25T02:36:32.084Z,1016.726370912
2022-12-25T02:37:32.116Z,1016.523188184
2022-12-25T02:38:32.093Z,1016.6247795480001
2022-12-25T02:39:32.110Z,1016.6247795480001
2022-12-25T02:40:32.106Z,1016.523188184
2022-12-25T02:41:32.115Z,1016.523188184
2022-12-25T02:42:32.111Z,1016.726370912
2022-12-25T02:43:32.087Z,1016.42159682
2022-12-25T02:44:32.086Z,1016.726370912
2022-12-25T02:45:32.166Z,1016.6247795480001
2022-12-25T02:46:32.152Z,1016.523188184
2022-12-25T02:47:32.166Z,1016.726370912
2022-12-25T02:48:32.086Z,1016.523188184
2022-12-25T02:49:32.109Z,1016.42159682
2022-12-25T02:50:32.105Z,1016.42159682
2022-12-25T02:51:32.113Z,1016.3200054560001
2022-12-25T02:52:32.088Z,1016.42159682
2022-12-25T02:53:32.143Z,1016.218414092
2022-12-25T02:54:32.211Z,1016.42159682
2022-12-25T02:55:32.099Z,1016.42159682
2022-12-25T02:56:32.097Z,1016.6247795480001
2022-12-25T02:57:32.118Z,1016.3200054560001
2022-12-25T02:58:32.080Z,1016.523188184
2022-12-25T02:59:32.099Z,1016.523188184
2022-12-25T03:00:32.085Z,1016.42159682
2022-12-25T03:01:32.248Z,1016.42159682
2022-12-25T03:02:32.142Z,1016.42159682
2022-12-25T03:03:32.228Z,1016.218414092
2022-12-25T03:04:32.076Z,1016.42159682
2022-12-25T03:05:32.093Z,1016.523188184
2022-12-25T03:06:32.098Z,1016.42159682
2022-12-25T03:07:32.093Z,1016.42159682
2022-12-25T03:08:32.109Z,1016.6247795480001
2022-12-25T03:09:32.121Z,1016.523188184
2022-12-25T03:10:32.257Z,1016.42159682
2022-12-25T03:11:32.233Z,1016.523188184
2022-12-25T03:12:32.267Z,1016.523188184
2022-12-25T03:13:32.117Z,1016.523188184
2022-12-25T03:14:32.114Z,1016.6247795480001
2022-12-25T03:15:32.098Z,1016.523188184
2022-12-25T03:16:32.225Z,1016.523188184
2022-12-25T03:17:32.243Z,1016.523188184
2022-12-25T03:18:32.125Z,1016.42159682
2022-12-25T03:19:32.217Z,1016.523188184
2022-12-25T03:20:32.109Z,1016.42159682
2022-12-25T03:21:32.241Z,1016.523188184
2022-12-25T03:22:32.251Z,1016.6247795480001
2022-12-25T03:23:32.271Z,1016.523188184
2022-12-25T03:24:32.093Z,1016.523188184
2022-12-25T03:25:32.166Z,1016.218414092
2022-12-25T03:26:32.227Z,1016.6247795480001
2022-12-25T03:27:32.102Z,1016.726370912
2022-12-25T03:28:32.222Z,1016.827962276
2022-12-25T03:29:32.244Z,1016.6247795480001
2022-12-25T03:30:32.266Z,1016.726370912
2022-12-25T03:31:32.178Z,1016.726370912
2022-12-25T03:32:32.162Z,1016.9295536400001
2022-12-25T03:33:45.029Z,1016.6247795480001
2022-12-25T03:34:32.121Z,1016.726370912
2022-12-25T03:35:32.076Z,1016.6247795480001
2022-12-25T03:36:32.231Z,1016.6247795480001
2022-12-25T03:37:32.211Z,1016.6247795480001
2022-12-25T03:38:32.140Z,1016.726370912
2022-12-25T03:39:32.322Z,1016.6247795480001
2022-12-25T03:40:32.211Z,1016.6247795480001
2022-12-25T03:41:32.209Z,1016.726370912
2022-12-25T03:42:32.265Z,1016.827962276
2022-12-25T03:43:32.271Z,1016.726370912
2022-12-25T03:44:32.269Z,1016.523188184
2022-12-25T03:45:32.102Z,1016.9295536400001
2022-12-25T03:46:32.182Z,1016.726370912
2022-12-25T03:47:32.097Z,1016.726370912
2022-12-25T03:48:32.127Z,1016.726370912
2022-12-25T03:49:32.089Z,1016.827962276
2022-12-25T03:50:32.149Z,1016.726370912
2022-12-25T03:51:32.159Z,1016.523188184
2022-12-25T03:52:32.116Z,1016.726370912
2022-12-25T03:53:32.082Z,1016.6247795480001
2022-12-25T03:54:32.100Z,1016.726370912
2022-12-25T03:55:32.221Z,1016.827962276
2022-12-25T03:56:32.136Z,1016.827962276
2022-12-25T03:57:32.099Z,1016.827962276
2022-12-25T03:58:32.121Z,1017.031145004
2022-12-25T03:59:32.103Z,1016.827962276
2022-12-25T04:00:32.126Z,1016.9295536400001
2022-12-25T04:01:32.177Z,1016.827962276
2022-12-25T04:02:32.259Z,1016.9295536400001
2022-12-25T04:03:32.133Z,1016.9295536400001
2022-12-25T04:04:32.251Z,1016.827962276
2022-12-25T04:05:32.089Z,1016.9295536400001
2022-12-25T04:06:32.135Z,1016.827962276
2022-12-25T04:07:32.113Z,1017.031145004
2022-12-25T04:08:32.221Z,1016.9295536400001
2022-12-25T04:09:32.175Z,1016.827962276
2022-12-25T04:10:32.145Z,1017.031145004
2022-12-25T04:11:32.197Z,1017.132736368
2022-12-25T04:12:32.139Z,1016.827962276
2022-12-25T04:13:32.104Z,1016.9295536400001
2022-12-25T04:14:32.149Z,1016.9295536400001
2022-12-25T04:15:32.119Z,1017.031145004
2022-12-25T04:16:32.218Z,1017.132736368
2022-12-25T04:17:32.107Z,1016.9295536400001
2022-12-25T04:18:32.235Z,1017.031145004
2022-12-25T04:19:32.101Z,1017.335919096
2022-12-25T04:20:32.163Z,1016.9295536400001
2022-12-25T04:21:32.097Z,1017.2343277320001
2022-12-25T04:22:32.078Z,1016.9295536400001
2022-12-25T04:23:32.080Z,1017.132736368
2022-12-25T04:24:32.110Z,1016.9295536400001
2022-12-25T04:25:32.082Z,1017.132736368
2022-12-25T04:26:32.110Z,1017.2343277320001
2022-12-25T04:27:32.066Z,1017.132736368
2022-12-25T04:28:32.126Z,1016.9295536400001
2022-12-25T04:29:32.099Z,1017.031145004
2022-12-25T04:30:32.068Z,1017.031145004
2022-12-25T04:31:32.190Z,1017.031145004
2022-12-25T04:32:32.110Z,1017.132736368
2022-12-25T04:33:32.091Z,1017.031145004
2022-12-25T04:34:32.078Z,1017.031145004
2022-12-25T04:35:32.085Z,1017.031145004
2022-12-25T04:36:32.112Z,1017.132736368
2022-12-25T04:37:32.088Z,1016.827962276
2022-12-25T04:38:32.073Z,1017.031145004
2022-12-25T04:39:32.091Z,1017.031145004
2022-12-25T04:40:32.121Z,1017.031145004
2022-12-25T04:41:32.089Z,1016.827962276
2022-12-25T04:42:32.164Z,1016.9295536400001
2022-12-25T04:43:32.103Z,1017.132736368
2022-12-25T04:44:32.105Z,1016.827962276
2022-12-25T04:45:32.081Z,1016.827962276
2022-12-25T04:46:32.155Z,1016.9295536400001
2022-12-25T04:47:32.071Z,1017.2343277320001
2022-12-25T04:48:32.110Z,1017.2343277320001
2022-12-25T04:49:32.100Z,1017.031145004
2022-12-25T04:50:32.105Z,1017.031145004
2022-12-25T04:51:32.071Z,1017.031145004
2022-12-25T04:52:32.105Z,1017.031145004
2022-12-25T04:53:32.089Z,1017.132736368
2022-12-25T04:54:32.105Z,1017.031145004
2022-12-25T04:55:32.094Z,1017.2343277320001
2022-12-25T04:56:32.086Z,1017.031145004
2022-12-25T04:57:32.077Z,1017.2343277320001
2022-12-25T04:58:32.081Z,1017.031145004
2022-12-25T04:59:32.077Z,1016.9295536400001
2022-12-25T05:00:32.113Z,1017.031145004
2022-12-25T05:01:32.202Z,1017.031145004
2022-12-25T05:02:32.364Z,1017.031145004
2022-12-25T05:03:32.259Z,1017.031145004
2022-12-25T05:04:32.119Z,1017.031145004
2022-12-25T05:05:33.097Z,1017.2343277320001
2022-12-25T05:06:32.072Z,1016.9295536400001
2022-12-25T05:07:32.098Z,1016.9295536400001
2022-12-25T05:08:32.098Z,1017.132736368
2022-12-25T05:09:32.094Z,1016.9295536400001
2022-12-25T05:10:32.080Z,1016.9295536400001
2022-12-25T05:11:32.097Z,1016.9295536400001
2022-12-25T05:12:32.120Z,1016.827962276
2022-12-25T05:13:32.202Z,1016.827962276
2022-12-25T05:14:32.113Z,1017.2343277320001
2022-12-25T05:15:32.103Z,1017.132736368
2022-12-25T05:16:32.202Z,1017.2343277320001
2022-12-25T05:17:32.091Z,1017.335919096
2022-12-25T05:18:32.075Z,1017.2343277320001
2022-12-25T05:19:32.179Z,1017.2343277320001
2022-12-25T05:20:36.342Z,1017.031145004
2022-12-25T05:21:32.102Z,1017.2343277320001
2022-12-25T05:22:32.070Z,1017.2343277320001
2022-12-25T05:23:32.071Z,1017.2343277320001
2022-12-25T05:24:32.188Z,1017.335919096
2022-12-25T05:25:32.098Z,1017.43751046
2022-12-25T05:26:32.085Z,1017.43751046
2022-12-25T05:27:32.090Z,1017.2343277320001
2022-12-25T05:28:32.091Z,1017.335919096
2022-12-25T05:29:32.125Z,1017.2343277320001
2022-12-25T05:30:32.093Z,1017.335919096
2022-12-25T05:31:32.245Z,1017.539101824
2022-12-25T05:32:32.070Z,1017.335919096
2022-12-25T05:33:32.104Z,1017.43751046
2022-12-25T05:34:32.046Z,1017.6068294
2022-12-25T05:35:32.081Z,1017.43751046
2022-12-25T05:36:32.075Z,1017.43751046
2022-12-25T05:37:32.123Z,1017.335919096
2022-12-25T05:38:32.085Z,1017.335919096
2022-12-25T05:39:32.084Z,1017.335919096
2022-12-25T05:40:32.115Z,1017.335919096
2022-12-25T05:41:34.524Z,1017.43751046
2022-12-25T05:42:32.077Z,1017.539101824
2022-12-25T05:43:32.122Z,1017.2343277320001
2022-12-25T05:44:32.089Z,1017.43751046
2022-12-25T05:45:32.120Z,1017.43751046
2022-12-25T05:46:32.174Z,1017.6068294
2022-12-25T05:47:32.074Z,1017.43751046
2022-12-25T05:48:32.056Z,1017.335919096
2022-12-25T05:49:32.106Z,1017.335919096
2022-12-25T05:50:32.065Z,1017.43751046
2022-12-25T05:51:32.092Z,1017.2343277320001
2022-12-25T05:52:32.086Z,1017.539101824
2022-12-25T05:53:32.124Z,1017.335919096
2022-12-25T05:54:32.101Z,1017.335919096
2022-12-25T05:55:32.076Z,1017.2343277320001
2022-12-25T05:56:32.077Z,1017.335919096
2022-12-25T05:57:32.137Z,1017.335919096
2022-12-25T05:58:32.093Z,1017.2343277320001
2022-12-25T05:59:32.084Z,1017.335919096
2022-12-25T06:00:32.117Z,1017.335919096
2022-12-25T06:01:32.257Z,1017.539101824
2022-12-25T06:02:32.329Z,1017.43751046
2022-12-25T06:03:32.130Z,1017.6068294
2022-12-25T06:04:32.076Z,1017.539101824
2022-12-25T06:05:32.119Z,1017.43751046
2022-12-25T06:06:32.101Z,1017.6068294
2022-12-25T06:07:32.071Z,1017.6068294
2022-12-25T06:08:32.088Z,1017.539101824
2022-12-25T06:09:32.131Z,1017.335919096
2022-12-25T06:10:32.099Z,1017.6068294
2022-12-25T06:11:32.082Z,1017.708420764
2022-12-25T06:12:32.082Z,1017.708420764
2022-12-25T06:13:32.088Z,1017.6068294
2022-12-25T06:14:32.095Z,1017.708420764
2022-12-25T06:15:32.113Z,1017.810012128
2022-12-25T06:16:37.953Z,1017.708420764
2022-12-25T06:17:32.090Z,1017.708420764
2022-12-25T06:18:32.033Z,1017.810012128
2022-12-25T06:19:32.062Z,1017.810012128
2022-12-25T06:20:32.079Z,1017.708420764
2022-12-25T06:21:32.068Z,1017.6068294
2022-12-25T06:22:32.086Z,1017.6068294
2022-12-25T06:23:32.116Z,1017.810012128
2022-12-25T06:24:32.114Z,1017.708420764
2022-12-25T06:25:32.060Z,1017.911603492
2022-12-25T06:26:32.124Z,1017.810012128
2022-12-25T06:27:32.088Z,1017.911603492
2022-12-25T06:28:32.120Z,1017.810012128
2022-12-25T06:29:32.070Z,1018.013194856
2022-12-25T06:30:32.098Z,1017.911603492
2022-12-25T06:31:32.122Z,1017.911603492
2022-12-25T06:32:32.089Z,1017.911603492
2022-12-25T06:33:32.074Z,1018.013194856
2022-12-25T06:34:32.069Z,1018.013194856
2022-12-25T06:35:32.081Z,1018.013194856
2022-12-25T06:36:32.101Z,1017.911603492
2022-12-25T06:37:32.066Z,1018.11478622
2022-12-25T06:38:32.076Z,1018.013194856
2022-12-25T06:39:32.063Z,1017.810012128
2022-12-25T06:40:32.094Z,1017.911603492
2022-12-25T06:41:32.054Z,1018.013194856
2022-12-25T06:42:32.092Z,1017.911603492
2022-12-25T06:43:32.079Z,1018.013194856
2022-12-25T06:44:32.094Z,1018.11478622
2022-12-25T06:45:32.090Z,1018.11478622
2022-12-25T06:46:32.081Z,1018.013194856
2022-12-25T06:47:32.067Z,1017.911603492
2022-12-25T06:48:32.126Z,1018.013194856
2022-12-25T06:49:32.041Z,1018.013194856
2022-12-25T06:50:32.074Z,1018.013194856
2022-12-25T06:51:32.096Z,1018.11478622
2022-12-25T06:52:32.085Z,1018.11478622
2022-12-25T06:53:38.806Z,1017.810012128
2022-12-25T06:54:32.258Z,1018.11478622
2022-12-25T06:55:32.086Z,1018.013194856
2022-12-25T06:56:32.090Z,1017.911603492
2022-12-25T06:57:32.048Z,1018.11478622
2022-12-25T06:58:32.096Z,1018.013194856
2022-12-25T06:59:32.083Z,1018.11478622
2022-12-25T07:00:32.105Z,1018.013194856
2022-12-25T07:01:32.176Z,1017.911603492
2022-12-25T07:02:32.206Z,1018.013194856
2022-12-25T07:03:32.072Z,1018.11478622
2022-12-25T07:04:32.234Z,1017.911603492
2022-12-25T07:05:32.058Z,1017.911603492
2022-12-25T07:06:32.082Z,1018.013194856
2022-12-25T07:07:32.046Z,1018.11478622
2022-12-25T07:08:32.076Z,1018.013194856
2022-12-25T07:09:32.066Z,1018.11478622
2022-12-25T07:10:32.057Z,1018.11478622
2022-12-25T07:11:32.052Z,1018.11478622
2022-12-25T07:12:32.099Z,1018.11478622
2022-12-25T07:13:32.060Z,1018.11478622
2022-12-25T07:14:32.071Z,1018.11478622
2022-12-25T07:15:32.072Z,1018.11478622
2022-12-25T07:16:32.323Z,1018.013194856
2022-12-25T07:17:32.044Z,1018.013194856
2022-12-25T07:18:32.148Z,1018.216377584
2022-12-25T07:19:32.092Z,1018.11478622
2022-12-25T07:20:32.072Z,1018.216377584
2022-12-25T07:21:32.093Z,1018.317968948
2022-12-25T07:22:32.114Z,1018.11478622
2022-12-25T07:23:32.062Z,1018.4195603120002
2022-12-25T07:24:32.041Z,1018.317968948
2022-12-25T07:25:37.113Z,1018.11478622
2022-12-25T07:26:32.078Z,1018.216377584
2022-12-25T07:27:32.055Z,1018.216377584
2022-12-25T07:28:32.132Z,1018.013194856
2022-12-25T07:29:32.176Z,1018.317968948
2022-12-25T07:30:32.076Z,1018.013194856
2022-12-25T07:31:32.158Z,1018.11478622
2022-12-25T07:32:32.117Z,1018.317968948
2022-12-25T07:33:32.107Z,1018.216377584
2022-12-25T07:34:32.069Z,1018.317968948
2022-12-25T07:35:32.074Z,1018.317968948
2022-12-25T07:36:32.044Z,1018.216377584
2022-12-25T07:37:32.099Z,1018.4195603120002
2022-12-25T07:38:32.076Z,1018.216377584
2022-12-25T07:39:32.047Z,1018.317968948
2022-12-25T07:40:32.056Z,1018.4195603120002
2022-12-25T07:41:32.164Z,1018.317968948
2022-12-25T07:42:32.087Z,1018.4195603120002
2022-12-25T07:43:32.044Z,1018.216377584
2022-12-25T07:44:32.075Z,1018.317968948
2022-12-25T07:45:32.171Z,1018.317968948
2022-12-25T07:46:32.070Z,1018.11478622
2022-12-25T07:47:32.147Z,1018.4195603120002
2022-12-25T07:48:32.076Z,1018.521151676
2022-12-25T07:49:32.111Z,1018.4195603120002
2022-12-25T07:50:32.040Z,1018.11478622
2022-12-25T07:51:32.071Z,1018.521151676
2022-12-25T07:52:35.313Z,1018.4195603120002
2022-12-25T07:53:32.083Z,1018.317968948
2022-12-25T07:54:32.044Z,1018.11478622
2022-12-25T07:55:32.075Z,1018.521151676
2022-12-25T07:56:32.065Z,1018.317968948
2022-12-25T07:57:32.088Z,1018.4195603120002
2022-12-25T07:58:32.080Z,1018.317968948
2022-12-25T07:59:32.068Z,1018.317968948
2022-12-25T08:00:32.067Z,1018.317968948
2022-12-25T08:01:32.333Z,1018.216377584
2022-12-25T08:02:32.432Z,1018.4195603120002
2022-12-25T08:03:33.367Z,1018.216377584
2022-12-25T08:04:32.059Z,1018.11478622
2022-12-25T08:05:32.096Z,1018.11478622
2022-12-25T08:06:32.134Z,1018.216377584
2022-12-25T08:07:32.088Z,1018.4195603120002
2022-12-25T08:08:32.068Z,1018.4195603120002
2022-12-25T08:09:32.110Z,1018.317968948
2022-12-25T08:10:32.079Z,1018.317968948
2022-12-25T08:11:32.077Z,1018.521151676
2022-12-25T08:12:32.077Z,1018.4195603120002
2022-12-25T08:13:32.097Z,1018.4195603120002
2022-12-25T08:14:32.047Z,1018.317968948
2022-12-25T08:15:32.064Z,1018.216377584
2022-12-25T08:16:32.071Z,1018.4195603120002
2022-12-25T08:17:32.103Z,1018.216377584
2022-12-25T08:18:32.082Z,1018.216377584
2022-12-25T08:19:32.057Z,1018.11478622
2022-12-25T08:20:32.205Z,1018.317968948
2022-12-25T08:21:32.067Z,1018.317968948
2022-12-25T08:22:32.119Z,1018.4195603120002
2022-12-25T08:23:32.071Z,1018.4195603120002
2022-12-25T08:24:32.076Z,1018.4195603120002
2022-12-25T08:25:32.084Z,1018.4195603120002
2022-12-25T08:26:32.073Z,1018.317968948
2022-12-25T08:27:32.061Z,1018.4195603120002
2022-12-25T08:28:32.061Z,1018.4195603120002
2022-12-25T08:29:32.106Z,1018.521151676
2022-12-25T08:30:32.152Z,1018.4195603120002
2022-12-25T08:31:32.106Z,1018.4195603120002
2022-12-25T08:32:32.072Z,1018.4195603120002
2022-12-25T08:33:32.082Z,1018.317968948
2022-12-25T08:34:32.100Z,1018.6227430399999
2022-12-25T08:35:32.058Z,1018.521151676
2022-12-25T08:36:32.042Z,1018.4195603120002
2022-12-25T08:37:32.043Z,1018.4195603120002
2022-12-25T08:38:32.084Z,1018.521151676
2022-12-25T08:39:32.059Z,1018.4195603120002
2022-12-25T08:40:32.067Z,1018.317968948
2022-12-25T08:41:32.084Z,1018.6227430399999
2022-12-25T08:42:32.097Z,1018.521151676
2022-12-25T08:43:32.069Z,1018.7243344039999
2022-12-25T08:44:32.065Z,1018.6227430399999
2022-12-25T08:45:35.256Z,1018.4195603120002
2022-12-25T08:46:32.216Z,1018.521151676
2022-12-25T08:47:32.051Z,1018.7243344039999
2022-12-25T08:48:32.097Z,1018.521151676
2022-12-25T08:49:32.050Z,1018.521151676
2022-12-25T08:50:32.083Z,1018.521151676
2022-12-25T08:51:32.068Z,1018.521151676
2022-12-25T08:52:32.076Z,1018.521151676
2022-12-25T08:53:32.055Z,1018.6227430399999
2022-12-25T08:54:32.103Z,1018.521151676
2022-12-25T08:55:32.043Z,1018.317968948
2022-12-25T08:56:32.053Z,1018.4195603120002
2022-12-25T08:57:32.036Z,1018.4195603120002
2022-12-25T08:58:32.058Z,1018.4195603120002
2022-12-25T08:59:32.058Z,1018.317968948
2022-12-25T09:00:32.058Z,1018.4195603120002
2022-12-25T09:01:32.156Z,1018.4195603120002
2022-12-25T09:02:32.520Z,1018.521151676
2022-12-25T09:03:32.217Z,1018.317968948
2022-12-25T09:04:32.093Z,1018.521151676
2022-12-25T09:05:32.067Z,1018.4195603120002
2022-12-25T09:06:32.105Z,1018.521151676
2022-12-25T09:07:32.065Z,1018.4195603120002
2022-12-25T09:08:32.129Z,1018.4195603120002
2022-12-25T09:09:32.150Z,1018.317968948
2022-12-25T09:10:32.080Z,1018.4195603120002
2022-12-25T09:11:32.066Z,1018.6227430399999
2022-12-25T09:12:32.072Z,1018.521151676
2022-12-25T09:13:32.068Z,1018.6227430399999
2022-12-25T09:14:32.056Z,1018.4195603120002
2022-12-25T09:15:32.110Z,1018.521151676
2022-12-25T09:16:32.137Z,1018.4195603120002
2022-12-25T09:17:32.052Z,1018.521151676
2022-12-25T09:18:32.092Z,1018.521151676
2022-12-25T09:19:32.092Z,1018.521151676
2022-12-25T09:20:32.100Z,1018.4195603120002
2022-12-25T09:21:32.058Z,1018.521151676
2022-12-25T09:22:32.075Z,1018.4195603120002
2022-12-25T09:23:32.075Z,1018.6227430399999
2022-12-25T09:24:32.066Z,1018.4195603120002
2022-12-25T09:25:32.028Z,1018.521151676
2022-12-25T09:26:32.063Z,1018.521151676
2022-12-25T09:27:32.070Z,1018.6227430399999
2022-12-25T09:28:32.103Z,1018.521151676
2022-12-25T09:29:32.061Z,1018.9275171319999
2022-12-25T09:30:32.159Z,1018.317968948
2022-12-25T09:31:32.142Z,1018.521151676
2022-12-25T09:32:32.076Z,1018.6227430399999
2022-12-25T09:33:32.046Z,1018.6227430399999
2022-12-25T09:34:32.048Z,1018.6227430399999
2022-12-25T09:35:32.081Z,1018.6227430399999
2022-12-25T09:36:32.052Z,1018.6227430399999
2022-12-25T09:37:32.066Z,1018.7243344039999
2022-12-25T09:38:32.037Z,1018.4195603120002
2022-12-25T09:39:32.116Z,1018.7243344039999
2022-12-25T09:40:32.080Z,1018.6227430399999
2022-12-25T09:41:32.070Z,1018.521151676
2022-12-25T09:42:32.096Z,1018.317968948
2022-12-25T09:43:32.112Z,1018.8259257679998
2022-12-25T09:44:32.064Z,1018.9275171319999
2022-12-25T09:45:32.061Z,1018.7243344039999